Time;durP1;ratioP1;P1;durP2;ratioP2;P2;SDS_P1;SDS_P2;PMS_P1;PMS_P2;Temp;Humidity;BMP_temperature;BMP_pressure;BME280_temperature;BME280_humidity;BME280_pressure;Samples;Min_cycle;Max_cycle;Signal;HPM_P1;HPM_P2
2022/04/26 03:36:39;;;;;;;12.00;7.30;;;;;;;;;;4980350;28;92482;-74
2022/04/26 03:39:06;;;;;;;13.13;7.40;;;;;;;;;;4998243;28;92424;-74
2022/04/26 03:41:33;;;;;;;19.38;8.43;;;;;;;;;;4998124;28;93561;-74
2022/04/26 03:43:59;;;;;;;15.75;8.25;;;;;;;;;;4997768;28;92370;-74
2022/04/26 03:46:27;;;;;;;14.02;8.98;;;;;;;;;;4998165;28;94414;-74
2022/04/26 03:48:54;;;;;;;9.45;8.02;;;;;;;;;;4997916;28;93602;-74
2022/04/26 03:51:20;;;;;;;16.55;9.05;;;;;;;;;;4998012;28;92259;-74
2022/04/26 03:53:47;;;;;;;13.98;8.80;;;;;;;;;;4979024;28;94674;-74
2022/04/26 03:56:13;;;;;;;11.10;8.57;;;;;;;;;;4983478;28;93678;-74
2022/04/26 03:58:40;;;;;;;11.45;8.75;;;;;;;;;;4996804;28;94258;-74
2022/04/26 04:01:06;;;;;;;20.48;9.15;;;;;;;;;;4997844;28;93449;-74
2022/04/26 04:03:35;;;;;;;14.88;9.35;;;;;;;;;;4997606;28;92372;-74
2022/04/26 04:06:02;;;;;;;11.40;9.55;;;;;;;;;;4979873;28;94466;-73
2022/04/26 04:08:28;;;;;;;16.27;10.15;;;;;;;;;;4997632;28;92669;-74
2022/04/26 04:10:54;;;;;;;18.67;10.25;;;;;;;;;;4997232;28;91480;-74
2022/04/26 04:13:22;;;;;;;17.95;9.73;;;;;;;;;;4995942;28;93633;-74
2022/04/26 04:15:49;;;;;;;17.02;10.10;;;;;;;;;;4997463;28;93771;-74
2022/04/26 04:21:00;;;;;;;13.70;10.77;;;;;;;;;;4996853;28;92613;-74
2022/04/26 04:23:27;;;;;;;16.92;10.90;;;;;;;;;;4996191;28;93169;-73
2022/04/26 04:25:54;;;;;;;13.20;11.25;;;;;;;;;;4995972;28;93558;-73
2022/04/26 04:28:21;;;;;;;19.67;11.70;;;;;;;;;;4996603;28;93866;-75
2022/04/26 04:30:47;;;;;;;19.08;11.65;;;;;;;;;;4996484;28;92354;-74
2022/04/26 04:33:13;;;;;;;17.73;12.85;;;;;;;;;;4996128;28;94101;-74
2022/04/26 04:35:40;;;;;;;14.30;12.27;;;;;;;;;;4996768;28;92934;-74
2022/04/26 04:38:06;;;;;;;16.58;12.75;;;;;;;;;;4996238;28;92282;-74
2022/04/26 04:40:33;;;;;;;20.08;13.38;;;;;;;;;;4998953;28;93377;-74
2022/04/26 04:43:00;;;;;;;18.42;12.77;;;;;;;;;;4994858;28;94743;-74
2022/04/26 04:45:26;;;;;;;18.50;13.50;;;;;;;;;;4996369;28;95933;-74
2022/04/26 04:47:53;;;;;;;28.65;13.77;;;;;;;;;;4996245;28;93511;-74
2022/04/26 04:50:19;;;;;;;15.88;13.20;;;;;;;;;;4996265;28;92277;-74
2022/04/26 04:52:47;;;;;;;21.48;14.15;;;;;;;;;;4996573;28;93465;-74
2022/04/26 04:55:14;;;;;;;17.88;12.88;;;;;;;;;;4995969;28;93057;-75
2022/04/26 04:57:41;;;;;;;23.73;12.88;;;;;;;;;;4995556;28;92196;-74
2022/04/26 05:00:08;;;;;;;22.15;12.85;;;;;;;;;;4996678;28;92978;-74
2022/04/26 05:02:34;;;;;;;20.25;12.93;;;;;;;;;;4998768;28;95184;-74
2022/04/26 05:05:00;;;;;;;16.40;12.38;;;;;;;;;;4996024;28;93750;-74
2022/04/26 05:07:29;;;;;;;20.30;12.63;;;;;;;;;;4976535;28;96475;-74
2022/04/26 05:09:55;;;;;;;19.75;11.77;;;;;;;;;;4996011;28;92299;-74
2022/04/26 05:12:21;;;;;;;20.77;12.52;;;;;;;;;;4996003;28;93485;-75
2022/04/26 05:14:48;;;;;;;18.75;12.15;;;;;;;;;;4996004;28;93599;-75
2022/04/26 05:17:14;;;;;;;23.30;12.00;;;;;;;;;;4995990;28;92163;-75
2022/04/26 05:19:40;;;;;;;17.65;12.55;;;;;;;;;;4996096;28;92988;-74
2022/04/26 05:22:08;;;;;;;18.63;11.15;;;;;;;;;;4995144;28;93033;-74
2022/04/26 05:24:54;;;;;;;16.52;11.32;;;;;;;;;;4999143;28;91729;-75
2022/04/26 05:27:20;;;;;;;15.98;11.18;;;;;;;;;;4995954;28;92682;-74
2022/04/26 05:29:47;;;;;;;18.98;11.57;;;;;;;;;;4995741;28;92235;-74
2022/04/26 05:32:18;;;;;;;20.48;11.85;;;;;;;;;;4994393;28;95523;-73
2022/04/26 05:34:44;;;;;;;18.95;11.45;;;;;;;;;;4998380;28;93430;-72
2022/04/26 05:37:11;;;;;;;18.85;10.55;;;;;;;;;;4999326;28;92918;-74
2022/04/26 05:39:38;;;;;;;18.77;10.18;;;;;;;;;;4981491;28;95324;-72
2022/04/26 05:42:05;;;;;;;13.93;10.30;;;;;;;;;;4999300;28;92724;-72
2022/04/26 05:44:32;;;;;;;14.70;10.10;;;;;;;;;;5002511;28;92300;-72
2022/04/26 05:47:01;;;;;;;16.67;9.98;;;;;;;;;;4996166;28;93841;-71
2022/04/26 05:49:29;;;;;;;18.27;10.38;;;;;;;;;;4999482;28;92931;-71
2022/04/26 05:51:56;;;;;;;15.50;9.65;;;;;;;;;;4998753;28;94981;-72
2022/04/26 05:54:22;;;;;;;14.98;9.38;;;;;;;;;;4999721;28;93186;-72
2022/04/26 05:56:52;;;;;;;13.30;9.60;;;;;;;;;;4998133;28;95436;-72
2022/04/26 05:59:18;;;;;;;15.68;9.60;;;;;;;;;;4979923;28;95726;-74
2022/04/26 06:01:45;;;;;;;12.30;8.95;;;;;;;;;;4979105;28;94124;-73
2022/04/26 06:04:11;;;;;;;19.02;9.20;;;;;;;;;;4979746;28;93022;-73
2022/04/26 06:06:38;;;;;;;12.98;8.38;;;;;;;;;;4982510;28;92977;-73
2022/04/26 06:09:04;;;;;;;17.25;8.27;;;;;;;;;;4979691;28;92339;-72
2022/04/26 06:11:31;;;;;;;14.98;8.20;;;;;;;;;;4979702;28;92493;-73
2022/04/26 06:13:58;;;;;;;14.02;8.52;;;;;;;;;;4979719;28;92538;-72
2022/04/26 06:16:26;;;;;;;19.50;9.75;;;;;;;;;;4979017;28;93015;-72
2022/04/26 06:18:52;;;;;;;13.13;8.05;;;;;;;;;;4979455;28;93451;-73
2022/04/26 06:21:19;;;;;;;14.15;7.35;;;;;;;;;;4977656;28;95455;-72
2022/04/26 06:23:45;;;;;;;17.27;7.93;;;;;;;;;;4978381;28;92308;-72
2022/04/26 06:26:11;;;;;;;16.35;8.20;;;;;;;;;;4979427;28;93305;-72
2022/04/26 06:28:38;;;;;;;12.38;7.63;;;;;;;;;;4982270;28;93782;-72
2022/04/26 06:31:05;;;;;;;12.40;8.50;;;;;;;;;;4978985;28;92963;-73
2022/04/26 06:33:33;;;;;;;13.27;7.78;;;;;;;;;;4994624;28;94518;-72
2022/04/26 06:36:00;;;;;;;11.20;7.38;;;;;;;;;;4978281;28;92291;-74
2022/04/26 06:38:26;;;;;;;19.67;7.30;;;;;;;;;;4979746;28;93426;-74
2022/04/26 06:40:53;;;;;;;13.50;7.90;;;;;;;;;;4979118;28;93570;-72
2022/04/26 06:43:19;;;;;;;19.77;8.35;;;;;;;;;;4979041;28;92379;-74
2022/04/26 06:45:46;;;;;;;18.05;8.55;;;;;;;;;;4976672;28;94756;-74
2022/04/26 06:48:13;;;;;;;13.13;7.07;;;;;;;;;;4977791;28;94751;-73
2022/04/26 06:50:40;;;;;;;11.43;7.70;;;;;;;;;;4981946;28;92277;-73
2022/04/26 06:53:07;;;;;;;11.02;7.40;;;;;;;;;;4978646;28;95049;-72
2022/04/26 06:55:33;;;;;;;15.25;7.40;;;;;;;;;;4979170;28;92574;-73
2022/04/26 06:58:00;;;;;;;20.73;8.40;;;;;;;;;;4987771;28;93285;-74
2022/04/26 07:00:26;;;;;;;19.45;8.00;;;;;;;;;;4998631;28;94067;-76
2022/04/26 07:02:53;;;;;;;9.60;7.20;;;;;;;;;;4999227;28;91546;-75
2022/04/26 07:05:23;;;;;;;12.13;6.45;;;;;;;;;;4998647;28;92652;-76
2022/04/26 07:07:50;;;;;;;14.95;6.03;;;;;;;;;;4998341;28;93066;-74
2022/04/26 07:10:17;;;;;;;17.25;6.95;;;;;;;;;;4997272;28;94729;-74
2022/04/26 07:12:43;;;;;;;16.80;7.15;;;;;;;;;;5001107;28;95872;-74
2022/04/26 07:15:09;;;;;;;13.05;6.45;;;;;;;;;;4998661;28;92196;-74
2022/04/26 07:17:40;;;;;;;15.57;6.15;;;;;;;;;;4946564;28;93497;-74
2022/04/26 07:20:08;;;;;;;10.52;6.00;;;;;;;;;;4998347;28;93577;-73
2022/04/26 07:22:38;;;;;;;11.52;6.03;;;;;;;;;;4998290;28;92301;-72
2022/04/26 07:25:05;;;;;;;15.32;6.55;;;;;;;;;;5001011;28;94248;-73
2022/04/26 07:27:32;;;;;;;9.80;6.10;;;;;;;;;;5005350;28;92663;-74
2022/04/26 07:29:59;;;;;;;12.10;5.95;;;;;;;;;;5008943;28;92424;-74
2022/04/26 07:35:11;;;;;;;25.08;7.93;;;;;;;;;;4997231;28;94597;-72
2022/04/26 07:37:38;;;;;;;8.82;5.90;;;;;;;;;;5005610;28;95620;-73
2022/04/26 07:40:05;;;;;;;9.80;5.93;;;;;;;;;;5005704;28;93366;-74
2022/04/26 07:42:32;;;;;;;7.75;5.30;;;;;;;;;;5009000;28;92396;-73
2022/04/26 07:44:58;;;;;;;15.00;5.93;;;;;;;;;;5004515;28;93587;-71
2022/04/26 07:47:26;;;;;;;8.80;6.10;;;;;;;;;;5006323;28;93899;-75
2022/04/26 07:49:53;;;;;;;13.40;5.93;;;;;;;;;;5007745;28;92310;-74
2022/04/26 07:52:20;;;;;;;11.48;6.05;;;;;;;;;;5006387;28;95146;-74
2022/04/26 07:54:47;;;;;;;10.52;5.88;;;;;;;;;;5013437;28;94449;-74
2022/04/26 07:57:13;;;;;;;9.25;5.85;;;;;;;;;;5011885;28;94333;-74
2022/04/26 07:59:40;;;;;;;6.85;5.20;;;;;;;;;;4988977;28;96043;-74
2022/04/26 08:02:06;;;;;;;8.05;5.45;;;;;;;;;;5005539;28;93344;-73
2022/04/26 08:04:33;;;;;;;7.07;5.18;;;;;;;;;;4997132;28;92802;-75
2022/04/26 08:07:00;;;;;;;17.40;5.68;;;;;;;;;;5007706;28;93395;-74
2022/04/26 08:09:26;;;;;;;11.27;6.38;;;;;;;;;;5006448;28;92323;-74
2022/04/26 08:11:53;;;;;;;13.27;5.82;;;;;;;;;;5007621;28;92307;-75
2022/04/26 08:14:20;;;;;;;7.47;5.22;;;;;;;;;;5004540;28;92884;-75
2022/04/26 08:16:47;;;;;;;10.10;5.60;;;;;;;;;;5010980;28;91629;-74
2022/04/26 08:19:13;;;;;;;9.93;5.45;;;;;;;;;;5005772;28;92983;-71
2022/04/26 08:21:40;;;;;;;7.07;5.30;;;;;;;;;;5007888;28;92220;-71
2022/04/26 08:29:38;;;;;;;13.90;5.75;;;;;;;;;;5001485;28;92260;-75
2022/04/26 08:32:05;;;;;;;12.98;5.97;;;;;;;;;;5001122;28;92966;-75
2022/04/26 08:34:32;;;;;;;9.10;5.75;;;;;;;;;;5005016;28;93540;-75
2022/04/26 08:36:58;;;;;;;9.10;5.68;;;;;;;;;;5005599;28;92338;-77
2022/04/26 08:39:24;;;;;;;9.35;5.40;;;;;;;;;;5009581;28;92756;-74
2022/04/26 08:41:56;;;;;;;14.07;5.97;;;;;;;;;;5007283;28;91559;-73
2022/04/26 08:44:25;;;;;;;10.40;6.75;;;;;;;;;;5008101;28;92740;-77
2022/04/26 08:52:22;;;;;;;8.93;5.65;;;;;;;;;;5004631;28;95654;-77
2022/04/26 08:54:49;;;;;;;9.77;5.53;;;;;;;;;;5003163;28;93967;-77
2022/04/26 08:57:16;;;;;;;7.53;5.10;;;;;;;;;;5005910;28;92333;-78
2022/04/26 08:59:49;;;;;;;12.32;5.38;;;;;;;;;;5005010;28;93019;-77
2022/04/26 09:02:22;;;;;;;11.10;5.00;;;;;;;;;;5010733;28;94272;-76
2022/04/26 09:04:49;;;;;;;11.13;5.72;;;;;;;;;;5003427;28;93298;-77
2022/04/26 09:07:37;;;;;;;10.32;5.85;;;;;;;;;;5007575;28;92295;-76
2022/04/26 09:10:03;;;;;;;13.13;5.45;;;;;;;;;;5014340;28;92451;-77
2022/04/26 09:12:29;;;;;;;6.80;5.13;;;;;;;;;;5010706;28;93631;-77
2022/04/26 09:14:56;;;;;;;7.78;5.28;;;;;;;;;;5008102;28;96215;-77
2022/04/26 09:17:23;;;;;;;12.93;5.35;;;;;;;;;;5012999;28;92369;-77
2022/04/26 09:19:52;;;;;;;7.95;5.50;;;;;;;;;;5012083;28;93532;-79
2022/04/26 09:22:25;;;;;;;7.22;5.07;;;;;;;;;;5013098;28;94072;-77
2022/04/26 09:24:59;;;;;;;6.57;5.10;;;;;;;;;;5014303;28;92318;-75
2022/04/26 09:27:27;;;;;;;11.10;6.22;;;;;;;;;;5012063;28;93302;-76
2022/04/26 09:29:53;;;;;;;8.48;5.30;;;;;;;;;;5013072;28;92395;-75
2022/04/26 09:32:20;;;;;;;8.07;5.38;;;;;;;;;;5011806;28;93594;-77
2022/04/26 09:34:46;;;;;;;10.50;5.65;;;;;;;;;;5012624;28;93184;-77
2022/04/26 09:37:12;;;;;;;7.53;5.90;;;;;;;;;;4992539;28;92285;-76
2022/04/26 09:39:44;;;;;;;8.45;5.50;;;;;;;;;;5009819;28;94811;-79
2022/04/26 09:42:30;;;;;;;7.03;5.45;;;;;;;;;;5007808;28;93234;-69
2022/04/26 09:45:04;;;;;;;8.75;5.22;;;;;;;;;;5012946;28;92298;-74
2022/04/26 09:47:35;;;;;;;5.55;4.50;;;;;;;;;;5011329;28;93253;-75
2022/04/26 09:50:04;;;;;;;7.85;4.97;;;;;;;;;;5010160;28;92304;-75
2022/04/26 09:52:30;;;;;;;5.22;4.72;;;;;;;;;;5013143;28;92770;-74
2022/04/26 09:54:57;;;;;;;12.00;5.40;;;;;;;;;;5010977;28;93694;-75
2022/04/26 09:57:24;;;;;;;8.00;4.90;;;;;;;;;;5009619;28;91629;-76
2022/04/26 10:00:05;;;;;;;6.10;4.25;;;;;;;;;;5012345;28;93464;-75
2022/04/26 10:02:36;;;;;;;9.65;4.55;;;;;;;;;;5009681;28;93141;-74
2022/04/26 10:05:03;;;;;;;4.43;4.03;;;;;;;;;;5010490;28;94904;-75
2022/04/26 10:07:36;;;;;;;6.22;4.10;;;;;;;;;;4996374;28;96308;-73
2022/04/26 10:10:03;;;;;;;9.48;4.68;;;;;;;;;;4994862;28;92418;-73
2022/04/26 10:12:31;;;;;;;6.10;4.65;;;;;;;;;;5010528;28;95275;-72
2022/04/26 10:14:59;;;;;;;14.77;4.68;;;;;;;;;;5010763;28;94376;-73
2022/04/26 10:17:26;;;;;;;11.63;4.40;;;;;;;;;;4981125;28;92341;-74
2022/04/26 10:19:52;;;;;;;6.63;4.45;;;;;;;;;;5011255;28;93736;-73
2022/04/26 10:22:43;;;;;;;9.60;3.88;;;;;;;;;;5008202;28;91843;-74
2022/04/26 10:25:13;;;;;;;8.15;3.70;;;;;;;;;;5005775;28;92406;-74
2022/04/26 10:27:40;;;;;;;5.25;3.70;;;;;;;;;;5009170;28;94835;-73
2022/04/26 10:30:06;;;;;;;14.55;4.43;;;;;;;;;;5008873;28;95353;-74
2022/04/26 10:32:40;;;;;;;8.85;3.75;;;;;;;;;;5010535;28;95627;-73
2022/04/26 10:35:21;;;;;;;4.05;3.65;;;;;;;;;;5003291;28;93417;-74
2022/04/26 10:38:07;;;;;;;7.47;3.63;;;;;;;;;;5008671;28;92194;-74
2022/04/26 10:40:52;;;;;;;11.63;4.03;;;;;;;;;;5002966;28;94158;-75
2022/04/26 10:43:19;;;;;;;12.45;3.78;;;;;;;;;;4980775;28;93612;-75
2022/04/26 10:46:04;;;;;;;8.88;3.33;;;;;;;;;;5017907;28;92425;-75
2022/04/26 10:48:30;;;;;;;4.25;3.45;;;;;;;;;;5019288;28;92506;-75
2022/04/26 10:51:16;;;;;;;16.75;4.22;;;;;;;;;;5018777;28;93630;-74
2022/04/26 10:53:45;;;;;;;6.60;3.33;;;;;;;;;;5020834;28;92340;-73
2022/04/26 10:56:12;;;;;;;5.63;4.00;;;;;;;;;;5017733;28;95050;-74
2022/04/26 10:58:49;;;;;;;9.45;4.22;;;;;;;;;;5018122;28;92364;-75
2022/04/26 11:01:15;;;;;;;4.25;3.63;;;;;;;;;;5018836;28;93489;-75
2022/04/26 11:03:52;;;;;;;15.50;4.00;;;;;;;;;;5018494;28;93525;-75
2022/04/26 11:06:35;;;;;;;4.45;3.95;;;;;;;;;;5000843;28;92310;-75
2022/04/26 11:09:08;;;;;;;4.80;3.75;;;;;;;;;;5018318;28;93392;-75
2022/04/26 11:11:50;;;;;;;45.42;31.13;;;;;;;;;;5018232;28;93013;-74
2022/04/26 11:14:21;;;;;;;10.80;3.90;;;;;;;;;;5018187;28;91440;-74
2022/04/26 11:16:58;;;;;;;7.22;3.90;;;;;;;;;;5021057;28;92367;-74
2022/04/26 11:19:29;;;;;;;6.85;3.72;;;;;;;;;;5018598;28;92150;-74
2022/04/26 11:22:07;;;;;;;5.32;3.70;;;;;;;;;;5017078;28;94667;-73
2022/04/26 11:30:05;;;;;;;3.72;3.42;;;;;;;;;;5018398;28;93417;-73
2022/04/26 11:32:34;;;;;;;3.45;3.15;;;;;;;;;;5017994;28;93749;-74
2022/04/26 11:35:01;;;;;;;5.18;3.30;;;;;;;;;;5018450;28;92427;-74
2022/04/26 11:37:27;;;;;;;6.38;3.42;;;;;;;;;;5010946;28;93708;-74
2022/04/26 11:39:54;;;;;;;8.63;3.78;;;;;;;;;;5006329;28;93928;-74
2022/04/26 11:42:20;;;;;;;6.82;3.25;;;;;;;;;;5008097;28;92500;-74
2022/04/26 11:44:56;;;;;;;9.13;3.30;;;;;;;;;;5006096;28;93741;-73
2022/04/26 11:47:36;;;;;;;4.40;3.33;;;;;;;;;;5004491;28;94797;-74
2022/04/26 11:50:08;;;;;;;8.55;3.47;;;;;;;;;;5004103;28;96269;-75
2022/04/26 11:52:35;;;;;;;5.20;3.20;;;;;;;;;;5006213;28;93577;-73
2022/04/26 11:55:01;;;;;;;11.10;3.45;;;;;;;;;;5007741;28;92894;-75
2022/04/26 11:57:28;;;;;;;8.10;3.60;;;;;;;;;;5001161;28;94184;-75
2022/04/26 11:59:54;;;;;;;9.35;4.07;;;;;;;;;;5006959;28;94079;-74
2022/04/26 12:02:21;;;;;;;5.65;3.63;;;;;;;;;;5008216;28;93463;-75
2022/04/26 12:04:48;;;;;;;17.17;4.20;;;;;;;;;;5005467;28;92983;-75
2022/04/26 12:07:15;;;;;;;13.13;3.28;;;;;;;;;;5001659;28;92443;-75
2022/04/26 12:09:42;;;;;;;7.07;3.70;;;;;;;;;;5008076;28;93329;-74
2022/04/26 12:12:11;;;;;;;12.07;3.53;;;;;;;;;;5005605;28;96828;-74
2022/04/26 12:14:40;;;;;;;4.35;3.58;;;;;;;;;;5006701;28;93217;-75
2022/04/26 12:17:19;;;;;;;6.45;3.70;;;;;;;;;;5005555;28;94449;-75
2022/04/26 12:19:51;;;;;;;8.68;3.97;;;;;;;;;;4998451;28;93487;-74
2022/04/26 12:22:18;;;;;;;15.63;3.80;;;;;;;;;;5011417;28;92595;-74
2022/04/26 12:24:45;;;;;;;5.22;3.42;;;;;;;;;;5005735;28;93183;-76
2022/04/26 12:27:13;;;;;;;9.00;3.92;;;;;;;;;;5007385;28;92139;-75
2022/04/26 12:29:40;;;;;;;30.30;4.20;;;;;;;;;;5005921;28;93348;-75
2022/04/26 12:32:07;;;;;;;30.30;4.00;;;;;;;;;;5006923;28;94538;-75
2022/04/26 12:34:33;;;;;;;36.72;4.43;;;;;;;;;;5005436;28;93619;-75
2022/04/26 12:37:06;;;;;;;7.53;3.75;;;;;;;;;;4996700;28;94718;-75
2022/04/26 12:39:39;;;;;;;4.10;3.47;;;;;;;;;;4998422;28;93054;-75
2022/04/26 12:42:07;;;;;;;5.10;3.53;;;;;;;;;;5007776;28;92253;-75
2022/04/26 12:44:37;;;;;;;9.85;3.60;;;;;;;;;;5007389;28;92929;-77
2022/04/26 12:52:45;;;;;;;18.63;4.32;;;;;;;;;;5003352;28;93854;-74
2022/04/26 12:55:11;;;;;;;8.68;3.85;;;;;;;;;;5007879;28;91649;-74
2022/04/26 12:57:47;;;;;;;3.60;3.30;;;;;;;;;;5004373;28;92402;-75
2022/04/26 13:00:14;;;;;;;3.75;3.40;;;;;;;;;;5005228;28;93591;-75
2022/04/26 13:02:40;;;;;;;13.10;3.30;;;;;;;;;;5006059;28;94786;-75
2022/04/26 13:05:07;;;;;;;6.65;3.85;;;;;;;;;;5004575;28;96238;-74
2022/04/26 13:07:34;;;;;;;7.78;2.95;;;;;;;;;;5003663;28;93903;-73
2022/04/26 13:10:00;;;;;;;3.60;3.10;;;;;;;;;;5006713;28;93316;-74
2022/04/26 13:12:27;;;;;;;6.10;3.08;;;;;;;;;;5005505;28;94257;-73
2022/04/26 13:14:53;;;;;;;3.30;2.97;;;;;;;;;;5006370;28;92293;-73
2022/04/26 13:17:21;;;;;;;5.13;3.38;;;;;;;;;;5007043;28;93147;-73
2022/04/26 13:19:47;;;;;;;10.40;3.08;;;;;;;;;;5001084;28;92460;-73
2022/04/26 13:22:16;;;;;;;3.25;2.92;;;;;;;;;;5007979;28;92430;-74
2022/04/26 13:24:42;;;;;;;8.98;2.80;;;;;;;;;;5001170;28;93468;-74
2022/04/26 13:27:08;;;;;;;7.22;2.75;;;;;;;;;;4988854;28;96190;-74
2022/04/26 13:29:35;;;;;;;12.93;3.00;;;;;;;;;;5005517;28;92367;-74
2022/04/26 13:32:02;;;;;;;10.80;2.88;;;;;;;;;;5005790;28;93615;-74
2022/04/26 13:34:28;;;;;;;4.13;2.53;;;;;;;;;;5005644;28;92432;-73
2022/04/26 13:37:07;;;;;;;12.40;3.10;;;;;;;;;;5005598;28;93289;-74
2022/04/26 13:39:34;;;;;;;8.43;3.22;;;;;;;;;;5003205;28;93687;-74
2022/04/26 13:42:01;;;;;;;5.50;3.10;;;;;;;;;;5005588;28;92316;-73
2022/04/26 13:44:27;;;;;;;14.68;3.30;;;;;;;;;;5006931;28;93301;-75
2022/04/26 13:46:54;;;;;;;6.70;3.20;;;;;;;;;;5004053;28;93784;-75
2022/04/26 13:49:20;;;;;;;4.20;3.10;;;;;;;;;;5007307;28;92425;-75
2022/04/26 13:51:47;;;;;;;3.75;3.45;;;;;;;;;;5000518;28;96337;-75
2022/04/26 13:54:13;;;;;;;7.35;3.00;;;;;;;;;;4991992;28;94175;-75
2022/04/26 13:56:39;;;;;;;7.78;3.20;;;;;;;;;;4999499;28;92905;-74
2022/04/26 13:59:06;;;;;;;9.50;3.47;;;;;;;;;;4999376;28;93775;-75
2022/04/26 14:01:32;;;;;;;6.82;3.15;;;;;;;;;;4990439;28;93457;-75
2022/04/26 14:03:59;;;;;;;6.95;2.58;;;;;;;;;;5007359;28;93369;-75
2022/04/26 14:06:25;;;;;;;3.30;3.00;;;;;;;;;;4986213;28;95501;-74
2022/04/26 14:08:51;;;;;;;7.20;2.70;;;;;;;;;;5009565;28;91726;-75
2022/04/26 14:11:19;;;;;;;2.60;2.50;;;;;;;;;;5010035;28;92747;-74
2022/04/26 14:22:20;;;;;;;4.18;2.55;;;;;;;;;;5007170;28;92301;-75
2022/04/26 14:24:48;;;;;;;2.38;2.17;;;;;;;;;;4991037;28;94861;-74
2022/04/26 14:27:15;;;;;;;4.63;2.80;;;;;;;;;;5005162;28;92955;-75
2022/04/26 14:29:42;;;;;;;2.20;2.10;;;;;;;;;;4991063;28;94321;-75
2022/04/26 14:32:08;;;;;;;2.15;2.05;;;;;;;;;;5007825;28;92799;-76
2022/04/26 14:34:36;;;;;;;2.42;2.20;;;;;;;;;;5013927;28;92142;-75
2022/04/26 14:37:03;;;;;;;2.60;2.50;;;;;;;;;;5010568;28;92498;-75
2022/04/26 14:39:29;;;;;;;4.32;2.58;;;;;;;;;;5000642;28;93543;-76
2022/04/26 14:41:56;;;;;;;2.38;2.10;;;;;;;;;;5007470;28;95627;-76
2022/04/26 14:44:22;;;;;;;2.17;2.08;;;;;;;;;;5007851;28;95893;-76
2022/04/26 14:46:49;;;;;;;2.70;2.50;;;;;;;;;;5007655;28;93290;-75
2022/04/26 14:49:15;;;;;;;3.50;2.20;;;;;;;;;;5005500;28;92333;-74
2022/04/26 14:51:42;;;;;;;4.60;2.47;;;;;;;;;;5006995;28;93629;-75
2022/04/26 14:54:08;;;;;;;2.70;2.40;;;;;;;;;;5007572;28;93024;-74
2022/04/26 14:56:35;;;;;;;2.55;2.30;;;;;;;;;;5012864;28;92446;-74
2022/04/26 14:59:17;;;;;;;4.60;3.45;;;;;;;;;;5004127;28;92504;-75
2022/04/26 15:01:52;;;;;;;2.83;2.63;;;;;;;;;;4988279;28;92351;-75
2022/04/26 15:04:19;;;;;;;4.65;2.90;;;;;;;;;;5004239;28;93882;-76
2022/04/26 15:06:46;;;;;;;3.58;2.70;;;;;;;;;;5007532;28;95492;-75
2022/04/26 15:17:29;;;;;;;3.65;3.45;;;;;;;;;;5005630;28;92341;-73
2022/04/26 15:19:56;;;;;;;4.03;3.60;;;;;;;;;;5010676;28;93234;-72
2022/04/26 15:22:24;;;;;;;7.57;4.15;;;;;;;;;;5005974;28;92857;-73
2022/04/26 15:24:50;;;;;;;4.18;3.85;;;;;;;;;;5006435;28;93663;-72
2022/04/26 15:27:18;;;;;;;4.25;3.50;;;;;;;;;;5002015;28;94120;-75
2022/04/26 15:29:44;;;;;;;4.28;3.67;;;;;;;;;;5008513;28;92421;-74
2022/04/26 15:32:11;;;;;;;5.28;4.00;;;;;;;;;;5008591;28;94823;-73
2022/04/26 15:34:38;;;;;;;8.73;3.80;;;;;;;;;;5007806;28;92726;-73
2022/04/26 15:37:05;;;;;;;5.28;3.83;;;;;;;;;;4983572;28;92360;-73
2022/04/26 15:39:31;;;;;;;4.85;4.18;;;;;;;;;;5008042;28;93203;-75
2022/04/26 15:41:59;;;;;;;3.60;3.30;;;;;;;;;;5008934;28;95241;-74
2022/04/26 15:44:26;;;;;;;3.88;3.55;;;;;;;;;;5008901;28;94390;-75
2022/04/26 15:46:56;;;;;;;5.25;3.83;;;;;;;;;;5001496;28;93630;-77
2022/04/26 15:49:24;;;;;;;4.60;4.10;;;;;;;;;;4991537;28;92557;-75
2022/04/26 15:51:51;;;;;;;7.38;4.07;;;;;;;;;;5004811;28;92573;-74
2022/04/26 15:54:18;;;;;;;9.32;4.15;;;;;;;;;;5018138;28;93626;-77
2022/04/26 15:56:47;;;;;;;4.13;3.70;;;;;;;;;;5007499;28;94640;-77
2022/04/26 15:59:14;;;;;;;4.15;3.85;;;;;;;;;;5003368;28;95724;-76
2022/04/26 16:01:40;;;;;;;4.32;3.92;;;;;;;;;;5008954;28;93533;-76
2022/04/26 16:04:09;;;;;;;6.15;3.80;;;;;;;;;;5011335;28;92368;-77
2022/04/26 16:06:39;;;;;;;7.05;3.50;;;;;;;;;;5005415;28;92942;-77
2022/04/26 16:22:54;;;;;;;9.52;3.38;;;;;;;;;;5004557;28;96343;-76
2022/04/26 16:25:20;;;;;;;4.07;3.67;;;;;;;;;;5009835;28;92242;-76
2022/04/26 16:27:48;;;;;;;3.70;3.38;;;;;;;;;;5006889;28;94755;-76
2022/04/26 16:30:15;;;;;;;3.92;3.55;;;;;;;;;;5004559;28;92301;-76
2022/04/26 16:32:41;;;;;;;5.68;3.53;;;;;;;;;;5004874;28;94067;-75
2022/04/26 16:35:10;;;;;;;4.18;3.22;;;;;;;;;;5001078;28;93204;-74
2022/04/26 16:37:37;;;;;;;6.97;3.55;;;;;;;;;;5008034;28;92444;-75
2022/04/26 16:40:04;;;;;;;7.43;4.05;;;;;;;;;;5005548;28;94132;-75
2022/04/26 16:42:30;;;;;;;4.07;3.65;;;;;;;;;;5007160;28;93609;-74
2022/04/26 16:44:57;;;;;;;4.68;3.22;;;;;;;;;;5006064;28;92399;-74
2022/04/26 16:47:23;;;;;;;6.47;3.60;;;;;;;;;;5007339;28;94786;-74
2022/04/26 16:49:50;;;;;;;5.05;3.80;;;;;;;;;;4985609;28;93228;-75
2022/04/26 16:52:17;;;;;;;4.18;3.78;;;;;;;;;;5008302;28;93639;-74
2022/04/26 16:54:43;;;;;;;8.02;4.03;;;;;;;;;;5004061;28;93489;-75
2022/04/26 16:57:09;;;;;;;4.32;3.92;;;;;;;;;;5004599;28;92433;-75
2022/04/26 16:59:36;;;;;;;9.55;4.35;;;;;;;;;;5007729;28;93755;-73
2022/04/26 17:02:02;;;;;;;4.35;4.00;;;;;;;;;;5005491;28;92751;-74
2022/04/26 17:04:30;;;;;;;13.25;4.43;;;;;;;;;;5007369;28;91548;-74
2022/04/26 17:06:58;;;;;;;7.95;4.35;;;;;;;;;;5005132;28;93073;-74
2022/04/26 17:09:24;;;;;;;9.93;4.47;;;;;;;;;;5010379;28;93432;-74
2022/04/26 17:11:51;;;;;;;7.22;4.43;;;;;;;;;;5003278;28;94691;-74
2022/04/26 17:14:18;;;;;;;6.53;4.40;;;;;;;;;;5007659;28;93370;-74
2022/04/26 17:16:46;;;;;;;4.82;4.40;;;;;;;;;;5004965;28;92456;-73
2022/04/26 17:19:13;;;;;;;7.13;4.30;;;;;;;;;;4981046;28;93430;-74
2022/04/26 17:21:40;;;;;;;7.07;4.35;;;;;;;;;;5005559;28;93252;-75
2022/04/26 17:25:13;;;;;;;6.82;4.57;;;;;;;;;;5005626;28;92325;-74
2022/04/26 17:26:53;;;;;;;7.18;3.63;;;;;;;;;;5003327;28;93298;-74
2022/04/26 17:29:20;;;;;;;5.88;3.97;;;;;;;;;;5002168;28;92839;-73
2022/04/26 17:31:53;;;;;;;5.65;4.22;;;;;;;;;;5003381;28;92366;-75
2022/04/26 17:34:20;;;;;;;4.15;3.85;;;;;;;;;;4981989;28;93800;-75
2022/04/26 17:36:47;;;;;;;10.63;4.30;;;;;;;;;;4998713;28;94767;-74
2022/04/26 17:39:33;;;;;;;4.47;4.07;;;;;;;;;;5001162;28;95177;-72
2022/04/26 17:42:01;;;;;;;8.23;4.47;;;;;;;;;;5007290;28;93672;-74
2022/04/26 17:44:27;;;;;;;4.57;4.20;;;;;;;;;;5005882;28;92215;-74
2022/04/26 17:46:54;;;;;;;7.25;4.53;;;;;;;;;;5004716;28;94744;-74
2022/04/26 17:49:41;;;;;;;6.00;4.55;;;;;;;;;;5004796;28;93408;-74
2022/04/26 17:52:09;;;;;;;12.63;4.40;;;;;;;;;;5010390;28;92332;-74
2022/04/26 17:57:20;;;;;;;4.40;4.00;;;;;;;;;;5007594;28;92722;-74
2022/04/26 17:59:47;;;;;;;5.13;4.40;;;;;;;;;;5008626;28;93573;-76
2022/04/26 18:02:13;;;;;;;7.60;4.63;;;;;;;;;;5006390;28;96097;-76
2022/04/26 18:04:40;;;;;;;4.75;4.35;;;;;;;;;;5011856;28;93678;-73
2022/04/26 18:07:07;;;;;;;5.43;4.30;;;;;;;;;;5007634;28;93506;-75
2022/04/26 18:09:34;;;;;;;6.70;4.50;;;;;;;;;;5010347;28;94171;-75
2022/04/26 18:12:00;;;;;;;6.72;5.00;;;;;;;;;;5008221;28;92326;-76
2022/04/26 18:14:27;;;;;;;6.53;4.90;;;;;;;;;;5008437;28;93355;-75
2022/04/26 18:16:53;;;;;;;5.20;4.70;;;;;;;;;;5009475;28;92774;-76
2022/04/26 18:19:20;;;;;;;7.72;4.45;;;;;;;;;;5008437;28;93366;-77
2022/04/26 18:21:46;;;;;;;8.88;4.68;;;;;;;;;;5010410;28;93669;-74
2022/04/26 18:24:13;;;;;;;6.53;4.20;;;;;;;;;;5006785;28;92295;-74
2022/04/26 18:26:40;;;;;;;9.60;4.50;;;;;;;;;;5004865;28;95555;-76
2022/04/26 18:29:08;;;;;;;7.80;4.93;;;;;;;;;;5009325;28;93975;-75
2022/04/26 18:31:37;;;;;;;6.63;4.40;;;;;;;;;;5007774;28;92709;-74
2022/04/26 18:34:04;;;;;;;6.97;4.72;;;;;;;;;;5005040;28;94081;-73
2022/04/26 18:36:30;;;;;;;6.60;4.57;;;;;;;;;;5011485;28;93479;-75
2022/04/26 18:38:57;;;;;;;8.73;4.22;;;;;;;;;;5009417;28;93819;-75
2022/04/26 18:41:24;;;;;;;7.05;4.60;;;;;;;;;;5006339;28;94058;-74
2022/04/26 18:43:55;;;;;;;9.13;4.88;;;;;;;;;;5006085;28;91642;-74
2022/04/26 18:46:22;;;;;;;4.88;4.30;;;;;;;;;;5006915;28;92182;-74
2022/04/26 18:48:50;;;;;;;6.07;4.50;;;;;;;;;;4998305;28;93121;-74
2022/04/26 18:51:17;;;;;;;4.75;4.45;;;;;;;;;;5005450;28;94746;-74
2022/04/26 18:53:44;;;;;;;5.70;4.28;;;;;;;;;;5006190;28;94172;-74
2022/04/26 18:56:11;;;;;;;7.65;4.75;;;;;;;;;;5008279;28;93762;-74
2022/04/26 18:58:39;;;;;;;5.85;4.28;;;;;;;;;;4959460;28;92387;-74
2022/04/26 19:01:06;;;;;;;8.43;5.00;;;;;;;;;;5007762;28;93345;-76
2022/04/26 19:03:32;;;;;;;9.80;4.85;;;;;;;;;;4983212;28;93489;-75
2022/04/26 19:06:03;;;;;;;6.50;4.57;;;;;;;;;;5009397;28;93230;-75
2022/04/26 19:08:29;;;;;;;5.15;4.28;;;;;;;;;;5006768;28;92508;-74
2022/04/26 19:13:41;;;;;;;5.72;4.82;;;;;;;;;;5003779;28;93244;-75
2022/04/26 19:16:07;;;;;;;5.55;4.15;;;;;;;;;;5005064;28;96131;-75
2022/04/26 19:18:34;;;;;;;5.72;4.32;;;;;;;;;;5009854;28;93013;-75
2022/04/26 19:21:01;;;;;;;5.88;4.50;;;;;;;;;;5009332;28;93362;-77